createdAt,value
2024-02-13T00:00:47.319Z,3.10
2024-02-13T00:03:15.510Z,3.20
2024-02-13T00:05:44.334Z,3.20
2024-02-13T00:08:14.450Z,3.10
2024-02-13T00:10:43.243Z,3.00
2024-02-13T00:13:10.933Z,3.10
2024-02-13T00:15:39.040Z,3.10
2024-02-13T00:18:08.489Z,3.10
2024-02-13T00:20:35.927Z,3.20
2024-02-13T00:23:05.663Z,3.20
2024-02-13T00:25:33.166Z,3.20
2024-02-13T00:28:00.456Z,3.10
2024-02-13T00:30:28.468Z,3.10
2024-02-13T00:32:58.350Z,3.10
2024-02-13T00:35:25.592Z,3.00
2024-02-13T00:37:52.807Z,3.00
2024-02-13T00:40:20.029Z,3.00
2024-02-13T00:42:52.228Z,2.90
2024-02-13T00:45:20.069Z,2.90
2024-02-13T00:47:47.305Z,2.90
2024-02-13T00:50:15.644Z,3.00
2024-02-13T00:52:43.422Z,3.00
2024-02-13T00:55:10.914Z,3.00
2024-02-13T00:57:38.351Z,3.10
2024-02-13T01:00:07.088Z,3.00
2024-02-13T01:02:35.168Z,3.10
2024-02-13T01:05:02.662Z,3.10
2024-02-13T01:07:31.549Z,3.20
2024-02-13T01:09:58.757Z,3.20
2024-02-13T01:12:25.985Z,3.20
2024-02-13T01:14:53.612Z,3.10
2024-02-13T01:17:20.976Z,3.10
2024-02-13T01:19:49.753Z,3.10
2024-02-13T01:22:18.030Z,3.10
2024-02-13T01:24:45.503Z,3.00
2024-02-13T01:27:14.723Z,3.00
2024-02-13T01:29:42.033Z,3.00
2024-02-13T01:32:09.553Z,2.90
2024-02-13T01:34:37.075Z,2.90
2024-02-13T01:37:04.747Z,2.90
2024-02-13T01:39:32.027Z,2.90
2024-02-13T01:41:59.321Z,2.90
2024-02-13T01:44:29.474Z,2.80
2024-02-13T01:46:58.105Z,2.80
2024-02-13T01:49:30.039Z,2.80
2024-02-13T01:51:59.716Z,2.80
2024-02-13T01:54:28.119Z,2.80
2024-02-13T01:56:55.744Z,2.70
2024-02-13T01:59:23.885Z,2.80
2024-02-13T02:01:51.504Z,2.80
2024-02-13T02:04:19.794Z,2.90
2024-02-13T02:06:50.290Z,2.80
2024-02-13T02:09:18.049Z,2.90
2024-02-13T02:11:45.455Z,2.80
2024-02-13T02:14:12.749Z,2.80
2024-02-13T02:16:39.998Z,2.80
2024-02-13T02:19:07.795Z,2.80
2024-02-13T02:21:35.240Z,2.70
2024-02-13T02:24:02.901Z,2.70
2024-02-13T02:26:31.209Z,2.70
2024-02-13T02:28:58.444Z,2.70
2024-02-13T02:31:25.760Z,2.70
2024-02-13T02:33:53.050Z,2.70
2024-02-13T02:36:20.630Z,2.70
2024-02-13T02:38:47.911Z,2.70
2024-02-13T02:41:15.819Z,2.70
2024-02-13T02:43:44.078Z,2.70
2024-02-13T02:46:13.712Z,2.80
2024-02-13T02:48:41.107Z,2.80
2024-02-13T02:51:08.584Z,2.80
2024-02-13T02:53:35.917Z,2.80
2024-02-13T02:56:03.241Z,2.90
2024-02-13T02:58:30.558Z,2.90
2024-02-13T03:00:57.852Z,2.80
2024-02-13T03:03:25.109Z,2.90
2024-02-13T03:05:53.237Z,2.90
2024-02-13T03:08:21.819Z,2.90
2024-02-13T03:10:49.337Z,2.90
2024-02-13T03:13:16.815Z,3.00
2024-02-13T03:15:45.780Z,3.00
2024-02-13T03:18:13.591Z,3.00
2024-02-13T03:20:41.329Z,3.10
2024-02-13T03:23:08.740Z,3.10
2024-02-13T03:25:36.099Z,3.10
2024-02-13T03:28:06.245Z,3.10
2024-02-13T03:30:34.262Z,3.10
2024-02-13T03:33:02.269Z,3.10
2024-02-13T03:35:31.531Z,3.10
2024-02-13T03:37:59.292Z,3.10
2024-02-13T03:40:26.650Z,3.10
2024-02-13T03:42:53.943Z,3.10
2024-02-13T03:45:21.266Z,3.10
2024-02-13T03:47:48.605Z,3.10
2024-02-13T03:50:17.408Z,3.10
2024-02-13T03:52:44.897Z,3.10
2024-02-13T03:55:12.360Z,3.10
2024-02-13T03:57:39.873Z,3.10
2024-02-13T04:00:08.343Z,3.10
2024-02-13T04:02:35.866Z,3.10
2024-02-13T04:05:03.244Z,3.00
2024-02-13T04:07:31.605Z,3.00
2024-02-13T04:10:00.282Z,3.00
2024-02-13T04:12:27.507Z,3.00
2024-02-13T04:14:54.863Z,2.90
2024-02-13T04:17:22.384Z,2.90
2024-02-13T04:19:49.630Z,2.80
2024-02-13T04:22:16.971Z,2.80
2024-02-13T04:24:44.177Z,2.80
2024-02-13T04:27:11.493Z,2.70
2024-02-13T04:29:42.926Z,2.70
2024-02-13T04:32:10.441Z,2.60
2024-02-13T04:34:37.936Z,2.60
2024-02-13T04:37:05.297Z,2.60
2024-02-13T04:39:32.802Z,2.70
2024-02-13T04:42:00.498Z,2.60
2024-02-13T04:44:27.736Z,2.60
2024-02-13T04:46:57.020Z,2.60
2024-02-13T04:49:25.509Z,2.70
2024-02-13T04:51:52.924Z,2.70
2024-02-13T04:54:20.251Z,2.70
2024-02-13T04:56:48.353Z,2.70
2024-02-13T04:59:17.664Z,2.70
2024-02-13T05:01:46.054Z,2.80
2024-02-13T05:04:16.773Z,2.80
2024-02-13T05:07:02.638Z,2.80
2024-02-13T05:09:30.010Z,2.80
2024-02-13T05:11:57.515Z,2.80
2024-02-13T05:14:25.832Z,2.80
2024-02-13T05:16:53.227Z,2.70
2024-02-13T05:19:22.081Z,2.70
2024-02-13T05:21:51.538Z,2.70
2024-02-13T05:24:18.900Z,2.70
2024-02-13T05:26:46.197Z,2.70
2024-02-13T05:29:13.488Z,2.70
2024-02-13T05:31:40.709Z,2.60
2024-02-13T05:34:08.456Z,2.60
2024-02-13T05:36:35.744Z,2.60
2024-02-13T05:39:04.354Z,2.60
2024-02-13T05:41:31.704Z,2.60
2024-02-13T05:43:59.029Z,2.60
2024-02-13T05:46:26.592Z,2.60
2024-02-13T05:48:55.513Z,2.60
2024-02-13T05:51:23.116Z,2.60
2024-02-13T05:53:50.691Z,2.60
2024-02-13T05:56:26.751Z,2.60
2024-02-13T05:58:58.582Z,2.50
2024-02-13T06:01:26.326Z,2.50
2024-02-13T06:03:57.037Z,2.50
2024-02-13T06:06:25.200Z,2.50
2024-02-13T06:08:54.442Z,2.50
2024-02-13T06:11:22.581Z,2.50
2024-02-13T06:13:50.734Z,2.40
2024-02-13T06:16:18.803Z,2.50
2024-02-13T06:18:49.706Z,2.40
2024-02-13T06:21:22.295Z,2.40
2024-02-13T06:23:51.068Z,2.40
2024-02-13T06:26:18.457Z,2.40
2024-02-13T06:28:45.726Z,2.40
2024-02-13T06:31:13.030Z,2.50
2024-02-13T06:33:40.520Z,2.50
2024-02-13T06:36:08.045Z,2.50
2024-02-13T06:38:36.298Z,2.50
2024-02-13T06:41:06.590Z,2.50
2024-02-13T06:43:34.620Z,2.60
2024-02-13T06:46:05.793Z,2.60
2024-02-13T06:48:33.680Z,2.60
2024-02-13T06:51:02.463Z,2.60
2024-02-13T06:53:30.155Z,2.60
2024-02-13T06:55:57.543Z,2.60
2024-02-13T06:58:24.733Z,2.60
2024-02-13T07:00:53.117Z,2.60
2024-02-13T07:03:20.734Z,2.70
2024-02-13T07:05:48.747Z,2.70
2024-02-13T07:08:16.282Z,2.70
2024-02-13T07:10:43.671Z,2.70
2024-02-13T07:13:10.893Z,2.80
2024-02-13T07:15:38.802Z,2.80
2024-02-13T07:18:07.998Z,2.80
2024-02-13T07:20:35.914Z,2.80
2024-02-13T07:23:04.177Z,2.90
2024-02-13T07:25:31.586Z,2.90
2024-02-13T07:27:58.859Z,2.90
2024-02-13T07:30:27.051Z,3.00
2024-02-13T07:32:55.636Z,3.00
2024-02-13T07:35:23.413Z,3.10
2024-02-13T07:37:50.905Z,3.10
2024-02-13T07:40:18.251Z,3.20
2024-02-13T07:42:45.696Z,3.20
2024-02-13T07:45:12.985Z,3.30
2024-02-13T07:47:42.241Z,3.30
2024-02-13T07:50:10.857Z,3.30
2024-02-13T07:52:38.192Z,3.30
2024-02-13T07:55:06.740Z,3.30
2024-02-13T07:57:35.184Z,3.40
2024-02-13T08:00:04.737Z,3.40
2024-02-13T08:02:32.167Z,3.40
2024-02-13T08:05:00.656Z,3.50
2024-02-13T08:07:29.069Z,3.50
2024-02-13T08:09:56.625Z,3.60
2024-02-13T08:12:25.366Z,3.60
2024-02-13T08:14:53.031Z,3.70
2024-02-13T08:17:20.539Z,3.80
2024-02-13T08:19:47.932Z,3.80
2024-02-13T08:22:16.442Z,3.90
2024-02-13T08:24:43.821Z,3.90
2024-02-13T08:27:11.267Z,4.00
2024-02-13T08:29:38.692Z,4.10
2024-02-13T08:32:07.596Z,4.20
2024-02-13T08:34:35.063Z,4.20
2024-02-13T08:37:02.607Z,4.20
2024-02-13T08:39:30.146Z,4.30
2024-02-13T08:41:59.826Z,4.40
2024-02-13T08:44:27.209Z,4.40
2024-02-13T08:46:54.449Z,4.50
2024-02-13T08:49:22.471Z,4.60
2024-02-13T08:51:50.144Z,4.70
2024-02-13T08:54:17.601Z,4.80
2024-02-13T08:56:45.132Z,4.90
2024-02-13T08:59:12.567Z,5.00
2024-02-13T09:01:39.931Z,5.10
2024-02-13T09:04:13.848Z,5.30
2024-02-13T09:06:42.598Z,5.50
2024-02-13T09:09:12.905Z,5.70
2024-02-13T09:11:40.448Z,5.90
2024-02-13T09:14:08.298Z,6.20
2024-02-13T09:16:35.848Z,6.40
2024-02-13T09:19:04.326Z,6.60
2024-02-13T09:21:31.911Z,6.70
2024-02-13T09:23:59.301Z,6.70
2024-02-13T09:26:26.710Z,6.80
2024-02-13T09:28:54.340Z,6.80
2024-02-13T09:31:21.620Z,6.80
2024-02-13T09:33:49.075Z,6.70
2024-02-13T09:36:18.017Z,6.70
2024-02-13T09:38:45.519Z,6.70
2024-02-13T09:41:13.426Z,6.80
2024-02-13T09:43:45.091Z,6.90
2024-02-13T09:46:17.674Z,7.10
2024-02-13T09:48:49.397Z,7.40
2024-02-13T09:51:21.229Z,7.50
2024-02-13T09:53:49.668Z,7.50
2024-02-13T09:56:18.137Z,7.60
2024-02-13T09:58:47.990Z,7.70
2024-02-13T10:01:15.842Z,7.80
2024-02-13T10:03:44.822Z,8.20
2024-02-13T10:06:12.693Z,8.70
2024-02-13T10:08:41.008Z,9.40
2024-02-13T10:11:10.167Z,10.20
2024-02-13T10:13:46.833Z,11.00
2024-02-13T10:16:29.692Z,11.80
2024-02-13T10:18:59.105Z,12.40
2024-02-13T10:21:28.430Z,12.80
2024-02-13T10:24:16.229Z,13.20
2024-02-13T10:26:44.098Z,13.50
2024-02-13T10:29:11.479Z,13.70
2024-02-13T10:31:41.687Z,13.90
2024-02-13T10:34:10.744Z,14.10
2024-02-13T10:36:43.274Z,14.30
2024-02-13T10:39:13.591Z,14.60
2024-02-13T10:41:42.994Z,14.70
2024-02-13T10:44:11.968Z,14.80
2024-02-13T10:46:40.700Z,14.80
2024-02-13T10:49:35.499Z,14.60
2024-02-13T10:52:06.524Z,14.60
2024-02-13T10:54:38.553Z,14.90
2024-02-13T10:57:08.102Z,15.10
2024-02-13T10:59:36.488Z,15.00
2024-02-13T11:02:05.672Z,14.70
2024-02-13T11:04:34.692Z,14.30
2024-02-13T11:07:03.361Z,13.90
2024-02-13T11:09:31.067Z,13.90
2024-02-13T11:12:00.057Z,14.00
2024-02-13T11:14:27.501Z,14.10
2024-02-13T11:16:58.405Z,14.30
2024-02-13T11:19:25.861Z,14.90
2024-02-13T11:21:54.629Z,15.30
2024-02-13T11:24:22.548Z,15.40
2024-02-13T11:26:50.025Z,15.90
2024-02-13T11:29:21.862Z,16.20
2024-02-13T11:31:58.963Z,16.20
2024-02-13T11:34:43.658Z,16.00
2024-02-13T11:37:21.849Z,15.80
2024-02-13T11:39:49.994Z,15.40
2024-02-13T11:42:23.090Z,14.60
2024-02-13T11:44:52.628Z,14.60
2024-02-13T11:47:20.709Z,14.80
2024-02-13T11:49:52.480Z,14.80
2024-02-13T11:52:24.253Z,14.30
2024-02-13T11:54:52.695Z,13.50
2024-02-13T11:57:21.942Z,12.90
2024-02-13T12:00:00.960Z,13.20
2024-02-13T12:02:29.967Z,13.80
2024-02-13T12:04:57.464Z,14.60
2024-02-13T12:07:25.100Z,15.20
2024-02-13T12:09:55.195Z,15.40
2024-02-13T12:12:22.769Z,15.60
2024-02-13T12:14:53.623Z,16.00
2024-02-13T12:17:22.089Z,16.20
2024-02-13T12:19:49.830Z,16.00
2024-02-13T12:22:18.366Z,16.20
2024-02-13T12:24:47.473Z,16.70
2024-02-13T12:27:16.558Z,17.70
2024-02-13T12:29:44.718Z,18.50
2024-02-13T12:32:19.169Z,18.20
2024-02-13T12:34:51.696Z,17.90
2024-02-13T12:37:21.267Z,18.10
2024-02-13T12:39:49.213Z,18.40
2024-02-13T12:42:18.546Z,18.80
2024-02-13T12:44:49.001Z,18.60
2024-02-13T12:47:18.349Z,18.40
2024-02-13T12:49:46.091Z,18.60
2024-02-13T12:52:18.061Z,18.50
2024-02-13T12:54:48.319Z,18.60
2024-02-13T12:57:16.183Z,18.80
2024-02-13T12:59:44.922Z,19.10
2024-02-13T13:02:14.791Z,19.30
2024-02-13T13:04:42.223Z,19.70
2024-02-13T13:07:10.158Z,20.00
2024-02-13T13:09:39.645Z,20.00
2024-02-13T13:12:09.811Z,20.10
2024-02-13T13:14:39.231Z,19.80
2024-02-13T13:17:08.566Z,18.80
2024-02-13T13:19:36.270Z,17.40
2024-02-13T13:22:03.971Z,16.20
2024-02-13T13:24:32.658Z,15.30
2024-02-13T13:27:00.109Z,14.60
2024-02-13T13:29:29.978Z,14.10
2024-02-13T13:31:57.314Z,14.10
2024-02-13T13:34:26.933Z,14.10
2024-02-13T13:36:56.099Z,13.80
2024-02-13T13:39:29.440Z,13.40
2024-02-13T13:41:56.842Z,13.20
2024-02-13T13:44:24.109Z,13.10
2024-02-13T13:46:53.368Z,13.00
2024-02-13T13:49:21.664Z,12.80
2024-02-13T13:51:48.956Z,12.60
2024-02-13T13:54:16.501Z,12.50
2024-02-13T13:56:43.895Z,12.50
2024-02-13T13:59:11.167Z,12.50
2024-02-13T14:01:38.724Z,12.30
2024-02-13T14:04:06.142Z,12.30
2024-02-13T14:06:33.531Z,12.20
2024-02-13T14:09:00.974Z,12.20
2024-02-13T14:11:28.401Z,12.20
2024-02-13T14:13:56.984Z,12.10
2024-02-13T14:16:26.967Z,12.00
2024-02-13T14:18:54.311Z,12.00
2024-02-13T14:21:21.826Z,11.90
2024-02-13T14:23:49.413Z,11.80
2024-02-13T14:26:17.678Z,11.80
2024-02-13T14:28:45.891Z,11.70
2024-02-13T14:31:13.768Z,11.60
2024-02-13T14:33:41.217Z,11.50
2024-02-13T14:36:09.360Z,11.40
2024-02-13T14:38:37.199Z,11.30
2024-02-13T14:41:04.825Z,11.30
2024-02-13T14:43:32.507Z,11.20
2024-02-13T14:46:00.463Z,11.20
2024-02-13T14:48:28.370Z,11.10
2024-02-13T14:50:55.873Z,11.00
2024-02-13T14:53:24.808Z,10.90
2024-02-13T14:55:52.175Z,10.90
2024-02-13T14:58:31.414Z,10.80
2024-02-13T15:01:09.868Z,10.70
2024-02-13T15:03:37.556Z,10.60
2024-02-13T15:06:04.958Z,10.50
2024-02-13T15:08:33.454Z,10.40
2024-02-13T15:11:00.902Z,10.30
2024-02-13T15:13:28.110Z,10.20
2024-02-13T15:15:55.554Z,10.10
2024-02-13T15:18:23.209Z,10.00
2024-02-13T15:20:50.716Z,9.90
2024-02-13T15:23:18.089Z,9.90
2024-02-13T15:25:45.339Z,9.80
2024-02-13T15:28:13.062Z,9.70
2024-02-13T15:30:40.296Z,9.70
2024-02-13T15:33:07.913Z,9.70
2024-02-13T15:35:43.264Z,9.60
2024-02-13T15:38:29.764Z,9.60
2024-02-13T15:41:15.822Z,9.70
2024-02-13T15:44:02.011Z,9.70
2024-02-13T15:46:47.835Z,9.70
2024-02-13T15:49:16.420Z,9.70
2024-02-13T15:51:50.445Z,9.60
2024-02-13T15:54:17.787Z,9.70
2024-02-13T15:56:56.430Z,9.70
2024-02-13T15:59:24.231Z,9.60
2024-02-13T16:01:51.808Z,9.60
2024-02-13T16:04:21.337Z,9.60
2024-02-13T16:06:55.450Z,9.50
2024-02-13T16:09:23.940Z,9.50
2024-02-13T16:11:51.241Z,9.50
2024-02-13T16:14:18.992Z,9.50
2024-02-13T16:16:46.769Z,9.40
2024-02-13T16:19:14.282Z,9.40
2024-02-13T16:21:41.635Z,9.40
2024-02-13T16:24:09.289Z,9.40
2024-02-13T16:26:36.684Z,9.40
2024-02-13T16:29:04.032Z,9.30
2024-02-13T16:31:32.045Z,9.30
2024-02-13T16:34:00.316Z,9.30
2024-02-13T16:36:27.701Z,9.30
2024-02-13T16:38:55.498Z,9.30
2024-02-13T16:41:22.815Z,9.30
2024-02-13T16:43:50.186Z,9.30
2024-02-13T16:46:25.404Z,9.20
2024-02-13T16:48:54.963Z,9.20
2024-02-13T16:51:22.808Z,9.20
2024-02-13T16:53:50.292Z,9.10
2024-02-13T16:56:18.276Z,9.10
2024-02-13T16:58:45.862Z,9.10
2024-02-13T17:01:13.244Z,9.10
2024-02-13T17:03:40.553Z,9.10
2024-02-13T17:06:09.847Z,9.10
2024-02-13T17:08:38.169Z,9.10
2024-02-13T17:11:05.861Z,9.10
2024-02-13T17:13:33.161Z,9.10
2024-02-13T17:16:00.471Z,9.00
2024-02-13T17:18:28.096Z,9.00
2024-02-13T17:20:55.502Z,9.00
2024-02-13T17:23:22.795Z,8.90
2024-02-13T17:25:50.932Z,8.90
2024-02-13T17:28:18.356Z,8.90
2024-02-13T17:30:45.964Z,8.90
2024-02-13T17:33:13.428Z,8.90
2024-02-13T17:35:40.914Z,8.90
2024-02-13T17:38:08.334Z,9.00
2024-02-13T17:40:35.563Z,9.00
2024-02-13T17:43:03.007Z,8.90
2024-02-13T17:45:30.262Z,8.90
2024-02-13T17:47:57.663Z,8.80
2024-02-13T17:50:25.149Z,8.80
2024-02-13T17:52:52.396Z,8.80
2024-02-13T17:55:21.401Z,8.90
2024-02-13T17:57:48.897Z,9.00
2024-02-13T18:00:23.166Z,8.90
2024-02-13T18:02:50.879Z,8.90
2024-02-13T18:05:18.513Z,8.80
2024-02-13T18:07:46.034Z,8.80
2024-02-13T18:10:13.260Z,8.70
2024-02-13T18:12:43.501Z,8.70
2024-02-13T18:15:14.204Z,8.60
2024-02-13T18:17:41.871Z,8.60
2024-02-13T18:20:15.121Z,8.60
2024-02-13T18:22:44.449Z,8.60
2024-02-13T18:25:11.938Z,8.60
2024-02-13T18:27:39.149Z,8.60
2024-02-13T18:30:07.225Z,8.60
2024-02-13T18:32:34.849Z,8.60
2024-02-13T18:35:02.315Z,8.60
2024-02-13T18:37:30.757Z,8.60
2024-02-13T18:39:58.207Z,8.50
2024-02-13T18:42:25.424Z,8.50
2024-02-13T18:44:53.718Z,8.50
2024-02-13T18:47:21.060Z,8.50
2024-02-13T18:49:48.746Z,8.50
2024-02-13T18:52:16.499Z,8.50
2024-02-13T18:54:45.679Z,8.50
2024-02-13T18:57:13.002Z,8.50
2024-02-13T18:59:42.772Z,8.50
2024-02-13T19:02:11.220Z,8.60
2024-02-13T19:04:39.806Z,8.50
2024-02-13T19:07:07.109Z,8.50
2024-02-13T19:09:34.360Z,8.50
2024-02-13T19:12:04.431Z,8.50
2024-02-13T19:14:31.704Z,8.50
2024-02-13T19:16:59.374Z,8.40
2024-02-13T19:19:26.664Z,8.50
2024-02-13T19:21:54.146Z,8.50
2024-02-13T19:24:22.945Z,8.50
2024-02-13T19:26:50.971Z,8.50
2024-02-13T19:29:18.258Z,8.50
2024-02-13T19:31:45.625Z,8.60
2024-02-13T19:34:13.020Z,8.50
2024-02-13T19:36:41.056Z,8.50
2024-02-13T19:39:08.312Z,8.50
2024-02-13T19:41:35.660Z,8.60
2024-02-13T19:44:03.359Z,8.60
2024-02-13T19:46:30.608Z,8.50
2024-02-13T19:48:58.106Z,8.50
2024-02-13T19:51:25.373Z,8.50
2024-02-13T19:53:53.643Z,8.50
2024-02-13T19:56:21.858Z,8.40
2024-02-13T19:58:50.654Z,8.30
2024-02-13T20:01:18.646Z,8.30
2024-02-13T20:03:45.952Z,8.30
2024-02-13T20:06:13.292Z,8.30
2024-02-13T20:08:40.659Z,8.40
2024-02-13T20:11:08.136Z,8.40
2024-02-13T20:13:38.165Z,8.40
2024-02-13T20:16:07.222Z,8.40
2024-02-13T20:18:36.300Z,8.40
2024-02-13T20:21:05.041Z,8.50
2024-02-13T20:23:36.576Z,8.50
2024-02-13T20:26:04.066Z,8.50
2024-02-13T20:28:33.133Z,8.50
2024-02-13T20:31:00.344Z,8.50
2024-02-13T20:33:31.988Z,8.50
2024-02-13T20:36:01.640Z,8.50
2024-02-13T20:38:35.742Z,8.50
2024-02-13T20:41:03.248Z,8.50
2024-02-13T20:43:30.472Z,8.40
2024-02-13T20:45:59.241Z,8.40
2024-02-13T20:48:27.243Z,8.40
2024-02-13T20:50:55.600Z,8.40
2024-02-13T20:53:23.370Z,8.50
2024-02-13T20:55:54.024Z,8.50
2024-02-13T20:58:21.733Z,8.50
2024-02-13T21:00:50.109Z,8.50
2024-02-13T21:03:20.891Z,8.60
2024-02-13T21:05:48.487Z,8.60
2024-02-13T21:08:16.536Z,8.60
2024-02-13T21:10:44.064Z,8.70
2024-02-13T21:13:11.341Z,8.70
2024-02-13T21:15:38.677Z,8.70
2024-02-13T21:18:07.464Z,8.80
2024-02-13T21:20:42.638Z,8.80
2024-02-13T21:23:29.735Z,8.80
2024-02-13T21:25:57.289Z,8.90
2024-02-13T21:28:26.265Z,8.90
2024-02-13T21:30:53.528Z,8.90
2024-02-13T21:33:20.981Z,8.90
2024-02-13T21:35:48.401Z,9.00
2024-02-13T21:38:15.699Z,9.00
2024-02-13T21:40:43.255Z,9.10
2024-02-13T21:43:10.652Z,9.10
2024-02-13T21:45:37.939Z,9.10
2024-02-13T21:48:06.272Z,9.10
2024-02-13T21:50:33.964Z,9.10
2024-02-13T21:53:01.431Z,9.10
2024-02-13T21:55:28.724Z,9.10
2024-02-13T21:57:55.944Z,9.10
2024-02-13T22:00:23.389Z,9.10
2024-02-13T22:02:50.943Z,9.10
2024-02-13T22:05:18.496Z,9.10
2024-02-13T22:07:45.712Z,9.10
2024-02-13T22:10:13.064Z,9.10
2024-02-13T22:12:42.986Z,9.10
2024-02-13T22:15:11.997Z,9.10
2024-02-13T22:17:39.664Z,9.10
2024-02-13T22:20:09.164Z,9.20
2024-02-13T22:22:36.469Z,9.20
2024-02-13T22:25:04.199Z,9.20
2024-02-13T22:27:31.811Z,9.20
2024-02-13T22:29:59.674Z,9.20
2024-02-13T22:32:27.137Z,9.20
2024-02-13T22:34:58.026Z,9.20
2024-02-13T22:37:26.085Z,9.10
2024-02-13T22:39:53.551Z,9.20
2024-02-13T22:42:20.926Z,9.20
2024-02-13T22:44:48.225Z,9.20
2024-02-13T22:47:15.498Z,9.20
2024-02-13T22:49:42.783Z,9.10
2024-02-13T22:52:10.055Z,9.10
2024-02-13T22:54:37.251Z,9.10
2024-02-13T22:57:05.187Z,9.00
2024-02-13T22:59:34.962Z,9.00
2024-02-13T23:02:04.253Z,8.80
2024-02-13T23:04:31.593Z,8.60
2024-02-13T23:06:59.803Z,8.40
2024-02-13T23:09:27.141Z,8.30
2024-02-13T23:11:54.507Z,8.10
2024-02-13T23:14:22.045Z,8.00
2024-02-13T23:16:49.458Z,8.00
2024-02-13T23:19:16.842Z,7.90
2024-02-13T23:21:44.548Z,8.00
2024-02-13T23:24:12.315Z,7.90
2024-02-13T23:26:41.088Z,7.90
2024-02-13T23:29:08.827Z,7.90
2024-02-13T23:31:38.768Z,8.00
2024-02-13T23:34:06.408Z,8.00
2024-02-13T23:36:33.933Z,8.10
2024-02-13T23:39:01.807Z,8.20
2024-02-13T23:41:29.181Z,8.30
2024-02-13T23:43:56.366Z,8.40
2024-02-13T23:46:23.583Z,8.50
2024-02-13T23:48:51.196Z,8.60
2024-02-13T23:51:18.659Z,8.70
2024-02-13T23:53:46.468Z,8.70
2024-02-13T23:56:18.503Z,8.70
2024-02-13T23:58:47.374Z,8.80
